sensor_id;sensor_type;location;lat;lon;timestamp;P1;durP1;ratioP1;P2;durP2;ratioP2
50367;SDS011;36281;34.132;-118.018;2022-07-18T00:00:06;11.23;;;7.90;;
50367;SDS011;36281;34.132;-118.018;2022-07-18T00:02:36;10.10;;;7.57;;
50367;SDS011;36281;34.132;-118.018;2022-07-18T00:05:06;11.82;;;8.10;;
50367;SDS011;36281;34.132;-118.018;2022-07-18T00:07:35;9.05;;;7.00;;
50367;SDS011;36281;34.132;-118.018;2022-07-18T00:10:05;8.90;;;6.45;;
50367;SDS011;36281;34.132;-118.018;2022-07-18T00:12:34;11.32;;;7.50;;
50367;SDS011;36281;34.132;-118.018;2022-07-18T00:15:04;10.55;;;7.13;;
50367;SDS011;36281;34.132;-118.018;2022-07-18T00:17:35;10.27;;;7.28;;
50367;SDS011;36281;34.132;-118.018;2022-07-18T00:20:05;12.93;;;7.40;;
50367;SDS011;36281;34.132;-118.018;2022-07-18T00:22:36;7.70;;;6.90;;
50367;SDS011;36281;34.132;-118.018;2022-07-18T00:25:06;11.20;;;7.50;;
50367;SDS011;36281;34.132;-118.018;2022-07-18T00:27:35;8.95;;;7.20;;
50367;SDS011;36281;34.132;-118.018;2022-07-18T00:30:04;9.77;;;7.07;;
50367;SDS011;36281;34.132;-118.018;2022-07-18T00:32:36;14.00;;;7.70;;
50367;SDS011;36281;34.132;-118.018;2022-07-18T00:35:06;12.10;;;7.32;;
50367;SDS011;36281;34.132;-118.018;2022-07-18T00:37:35;10.10;;;7.22;;
50367;SDS011;36281;34.132;-118.018;2022-07-18T00:40:06;9.50;;;6.85;;
50367;SDS011;36281;34.132;-118.018;2022-07-18T00:42:35;13.93;;;7.38;;
50367;SDS011;36281;34.132;-118.018;2022-07-18T00:45:05;10.45;;;7.22;;
50367;SDS011;36281;34.132;-118.018;2022-07-18T00:47:36;12.57;;;7.45;;
50367;SDS011;36281;34.132;-118.018;2022-07-18T00:50:06;12.05;;;7.32;;
50367;SDS011;36281;34.132;-118.018;2022-07-18T00:52:36;10.10;;;7.35;;
50367;SDS011;36281;34.132;-118.018;2022-07-18T00:55:05;10.10;;;7.00;;
50367;SDS011;36281;34.132;-118.018;2022-07-18T00:57:36;8.98;;;6.80;;
50367;SDS011;36281;34.132;-118.018;2022-07-18T01:00:10;13.30;;;7.32;;
50367;SDS011;36281;34.132;-118.018;2022-07-18T01:02:59;10.73;;;7.30;;
50367;SDS011;36281;34.132;-118.018;2022-07-18T01:05:29;12.07;;;7.35;;
50367;SDS011;36281;34.132;-118.018;2022-07-18T01:07:58;8.73;;;6.85;;
50367;SDS011;36281;34.132;-118.018;2022-07-18T01:10:27;10.68;;;7.47;;
50367;SDS011;36281;34.132;-118.018;2022-07-18T01:12:56;12.23;;;7.50;;
50367;SDS011;36281;34.132;-118.018;2022-07-18T01:15:27;13.25;;;7.30;;
50367;SDS011;36281;34.132;-118.018;2022-07-18T01:17:56;10.98;;;6.57;;
50367;SDS011;36281;34.132;-118.018;2022-07-18T01:20:28;14.27;;;6.50;;
50367;SDS011;36281;34.132;-118.018;2022-07-18T01:22:58;11.07;;;6.63;;
50367;SDS011;36281;34.132;-118.018;2022-07-18T01:25:27;8.52;;;6.50;;
50367;SDS011;36281;34.132;-118.018;2022-07-18T01:27:57;9.77;;;6.40;;
50367;SDS011;36281;34.132;-118.018;2022-07-18T01:30:26;10.32;;;6.45;;
50367;SDS011;36281;34.132;-118.018;2022-07-18T01:32:56;8.30;;;6.18;;
50367;SDS011;36281;34.132;-118.018;2022-07-18T01:35:28;11.10;;;6.75;;
50367;SDS011;36281;34.132;-118.018;2022-07-18T01:37:58;8.82;;;6.28;;
50367;SDS011;36281;34.132;-118.018;2022-07-18T01:40:30;10.57;;;6.57;;
50367;SDS011;36281;34.132;-118.018;2022-07-18T01:42:59;11.65;;;6.60;;
50367;SDS011;36281;34.132;-118.018;2022-07-18T01:45:28;11.60;;;6.38;;
50367;SDS011;36281;34.132;-118.018;2022-07-18T01:47:57;10.18;;;6.05;;
50367;SDS011;36281;34.132;-118.018;2022-07-18T01:50:28;12.32;;;7.22;;
50367;SDS011;36281;34.132;-118.018;2022-07-18T01:52:57;11.05;;;6.10;;
50367;SDS011;36281;34.132;-118.018;2022-07-18T01:55:26;13.07;;;5.95;;
50367;SDS011;36281;34.132;-118.018;2022-07-18T01:57:55;8.55;;;5.75;;
50367;SDS011;36281;34.132;-118.018;2022-07-18T02:00:24;7.93;;;6.05;;
50367;SDS011;36281;34.132;-118.018;2022-07-18T02:02:53;11.90;;;5.85;;
50367;SDS011;36281;34.132;-118.018;2022-07-18T02:05:22;9.98;;;5.88;;
50367;SDS011;36281;34.132;-118.018;2022-07-18T02:07:53;10.98;;;5.97;;
50367;SDS011;36281;34.132;-118.018;2022-07-18T02:10:22;10.02;;;5.80;;
50367;SDS011;36281;34.132;-118.018;2022-07-18T02:12:51;9.40;;;6.15;;
50367;SDS011;36281;34.132;-118.018;2022-07-18T02:15:20;7.32;;;5.68;;
50367;SDS011;36281;34.132;-118.018;2022-07-18T02:17:49;9.88;;;5.75;;
50367;SDS011;36281;34.132;-118.018;2022-07-18T02:20:19;9.65;;;6.40;;
50367;SDS011;36281;34.132;-118.018;2022-07-18T02:22:48;10.07;;;6.10;;
50367;SDS011;36281;34.132;-118.018;2022-07-18T02:25:18;10.73;;;5.70;;
50367;SDS011;36281;34.132;-118.018;2022-07-18T02:27:47;7.60;;;5.20;;
50367;SDS011;36281;34.132;-118.018;2022-07-18T02:30:16;10.30;;;6.28;;
50367;SDS011;36281;34.132;-118.018;2022-07-18T02:32:45;10.50;;;6.05;;
50367;SDS011;36281;34.132;-118.018;2022-07-18T02:35:15;10.68;;;6.22;;
50367;SDS011;36281;34.132;-118.018;2022-07-18T02:37:45;9.55;;;5.78;;
50367;SDS011;36281;34.132;-118.018;2022-07-18T02:40:14;9.55;;;5.60;;
50367;SDS011;36281;34.132;-118.018;2022-07-18T02:42:45;7.95;;;5.63;;
50367;SDS011;36281;34.132;-118.018;2022-07-18T02:45:14;11.57;;;6.18;;
50367;SDS011;36281;34.132;-118.018;2022-07-18T02:47:43;11.13;;;6.80;;
50367;SDS011;36281;34.132;-118.018;2022-07-18T02:50:12;10.38;;;6.05;;
50367;SDS011;36281;34.132;-118.018;2022-07-18T02:52:42;10.75;;;6.07;;
50367;SDS011;36281;34.132;-118.018;2022-07-18T02:55:11;9.10;;;6.22;;
50367;SDS011;36281;34.132;-118.018;2022-07-18T02:57:41;8.52;;;5.95;;
50367;SDS011;36281;34.132;-118.018;2022-07-18T03:00:13;11.02;;;6.15;;
50367;SDS011;36281;34.132;-118.018;2022-07-18T03:02:43;9.40;;;5.82;;
50367;SDS011;36281;34.132;-118.018;2022-07-18T03:05:13;8.55;;;5.53;;
50367;SDS011;36281;34.132;-118.018;2022-07-18T03:07:42;11.77;;;6.40;;
50367;SDS011;36281;34.132;-118.018;2022-07-18T03:10:11;9.60;;;5.88;;
50367;SDS011;36281;34.132;-118.018;2022-07-18T03:12:40;10.65;;;6.50;;
50367;SDS011;36281;34.132;-118.018;2022-07-18T03:15:10;9.43;;;6.05;;
50367;SDS011;36281;34.132;-118.018;2022-07-18T03:17:41;11.38;;;6.63;;
50367;SDS011;36281;34.132;-118.018;2022-07-18T03:20:10;10.45;;;6.28;;
50367;SDS011;36281;34.132;-118.018;2022-07-18T03:22:39;10.57;;;5.57;;
50367;SDS011;36281;34.132;-118.018;2022-07-18T03:25:08;9.77;;;5.65;;
50367;SDS011;36281;34.132;-118.018;2022-07-18T03:27:42;10.77;;;5.53;;
50367;SDS011;36281;34.132;-118.018;2022-07-18T03:30:12;10.82;;;4.95;;
50367;SDS011;36281;34.132;-118.018;2022-07-18T03:32:42;9.30;;;4.90;;
50367;SDS011;36281;34.132;-118.018;2022-07-18T03:35:14;11.65;;;5.60;;
50367;SDS011;36281;34.132;-118.018;2022-07-18T03:37:43;9.57;;;4.85;;
50367;SDS011;36281;34.132;-118.018;2022-07-18T03:40:12;10.13;;;5.28;;
50367;SDS011;36281;34.132;-118.018;2022-07-18T03:42:44;8.13;;;4.95;;
50367;SDS011;36281;34.132;-118.018;2022-07-18T03:45:15;9.13;;;5.78;;
50367;SDS011;36281;34.132;-118.018;2022-07-18T03:47:44;9.02;;;4.93;;
50367;SDS011;36281;34.132;-118.018;2022-07-18T03:50:13;8.85;;;4.97;;
50367;SDS011;36281;34.132;-118.018;2022-07-18T03:52:42;8.75;;;5.07;;
50367;SDS011;36281;34.132;-118.018;2022-07-18T03:55:11;11.23;;;5.53;;
50367;SDS011;36281;34.132;-118.018;2022-07-18T03:57:41;9.50;;;6.07;;
50367;SDS011;36281;34.132;-118.018;2022-07-18T04:00:10;9.73;;;5.57;;
50367;SDS011;36281;34.132;-118.018;2022-07-18T04:02:41;12.02;;;5.25;;
50367;SDS011;36281;34.132;-118.018;2022-07-18T04:05:12;8.52;;;4.85;;
50367;SDS011;36281;34.132;-118.018;2022-07-18T04:07:42;9.13;;;5.25;;
50367;SDS011;36281;34.132;-118.018;2022-07-18T04:10:11;9.63;;;4.90;;
50367;SDS011;36281;34.132;-118.018;2022-07-18T04:12:44;11.73;;;5.30;;
50367;SDS011;36281;34.132;-118.018;2022-07-18T04:15:14;8.43;;;5.07;;
50367;SDS011;36281;34.132;-118.018;2022-07-18T04:17:45;9.20;;;5.00;;
50367;SDS011;36281;34.132;-118.018;2022-07-18T04:20:14;8.48;;;4.53;;
50367;SDS011;36281;34.132;-118.018;2022-07-18T04:22:44;9.48;;;5.18;;
50367;SDS011;36281;34.132;-118.018;2022-07-18T04:25:18;8.25;;;4.55;;
50367;SDS011;36281;34.132;-118.018;2022-07-18T04:27:48;8.82;;;4.85;;
50367;SDS011;36281;34.132;-118.018;2022-07-18T04:30:18;8.98;;;5.03;;
50367;SDS011;36281;34.132;-118.018;2022-07-18T04:32:51;8.20;;;4.85;;
50367;SDS011;36281;34.132;-118.018;2022-07-18T04:35:20;8.43;;;5.00;;
50367;SDS011;36281;34.132;-118.018;2022-07-18T04:37:50;9.05;;;5.15;;
50367;SDS011;36281;34.132;-118.018;2022-07-18T04:40:19;7.75;;;5.25;;
50367;SDS011;36281;34.132;-118.018;2022-07-18T04:42:48;9.70;;;5.05;;
50367;SDS011;36281;34.132;-118.018;2022-07-18T04:45:18;11.63;;;5.45;;
50367;SDS011;36281;34.132;-118.018;2022-07-18T04:47:51;8.52;;;4.70;;
50367;SDS011;36281;34.132;-118.018;2022-07-18T04:50:20;8.90;;;5.47;;
50367;SDS011;36281;34.132;-118.018;2022-07-18T04:52:50;11.75;;;5.38;;
50367;SDS011;36281;34.132;-118.018;2022-07-18T04:55:20;9.70;;;5.28;;
50367;SDS011;36281;34.132;-118.018;2022-07-18T04:57:50;10.07;;;5.45;;
50367;SDS011;36281;34.132;-118.018;2022-07-18T05:00:19;8.70;;;4.90;;
50367;SDS011;36281;34.132;-118.018;2022-07-18T05:02:51;9.27;;;4.88;;
50367;SDS011;36281;34.132;-118.018;2022-07-18T05:05:22;10.80;;;5.25;;
50367;SDS011;36281;34.132;-118.018;2022-07-18T05:07:59;9.55;;;5.20;;
50367;SDS011;36281;34.132;-118.018;2022-07-18T05:10:28;7.22;;;4.65;;
50367;SDS011;36281;34.132;-118.018;2022-07-18T05:12:57;9.27;;;4.72;;
50367;SDS011;36281;34.132;-118.018;2022-07-18T05:15:26;8.52;;;5.18;;
50367;SDS011;36281;34.132;-118.018;2022-07-18T05:17:57;10.93;;;5.15;;
50367;SDS011;36281;34.132;-118.018;2022-07-18T05:20:26;8.43;;;4.75;;
50367;SDS011;36281;34.132;-118.018;2022-07-18T05:22:55;9.68;;;5.28;;
50367;SDS011;36281;34.132;-118.018;2022-07-18T05:25:24;9.10;;;4.88;;
50367;SDS011;36281;34.132;-118.018;2022-07-18T05:27:53;6.85;;;4.60;;
50367;SDS011;36281;34.132;-118.018;2022-07-18T05:30:23;10.70;;;5.25;;
50367;SDS011;36281;34.132;-118.018;2022-07-18T05:32:52;6.88;;;4.70;;
50367;SDS011;36281;34.132;-118.018;2022-07-18T05:35:23;7.43;;;4.85;;
50367;SDS011;36281;34.132;-118.018;2022-07-18T05:37:52;7.68;;;5.60;;
50367;SDS011;36281;34.132;-118.018;2022-07-18T05:40:21;10.25;;;5.25;;
50367;SDS011;36281;34.132;-118.018;2022-07-18T05:42:50;8.73;;;5.18;;
50367;SDS011;36281;34.132;-118.018;2022-07-18T05:45:21;9.55;;;5.18;;
50367;SDS011;36281;34.132;-118.018;2022-07-18T05:47:51;10.40;;;5.57;;
50367;SDS011;36281;34.132;-118.018;2022-07-18T05:50:20;8.80;;;4.80;;
50367;SDS011;36281;34.132;-118.018;2022-07-18T05:52:52;9.88;;;5.18;;
50367;SDS011;36281;34.132;-118.018;2022-07-18T05:55:21;8.15;;;5.05;;
50367;SDS011;36281;34.132;-118.018;2022-07-18T05:57:51;9.90;;;5.35;;
50367;SDS011;36281;34.132;-118.018;2022-07-18T06:00:20;10.65;;;5.10;;
50367;SDS011;36281;34.132;-118.018;2022-07-18T06:02:50;8.65;;;4.93;;
50367;SDS011;36281;34.132;-118.018;2022-07-18T06:05:19;8.52;;;4.90;;
50367;SDS011;36281;34.132;-118.018;2022-07-18T06:07:53;10.85;;;5.50;;
50367;SDS011;36281;34.132;-118.018;2022-07-18T06:10:23;10.15;;;5.70;;
50367;SDS011;36281;34.132;-118.018;2022-07-18T06:12:54;9.20;;;5.00;;
50367;SDS011;36281;34.132;-118.018;2022-07-18T06:15:23;7.45;;;4.80;;
50367;SDS011;36281;34.132;-118.018;2022-07-18T06:17:52;8.02;;;5.18;;
50367;SDS011;36281;34.132;-118.018;2022-07-18T06:20:21;10.15;;;5.10;;
50367;SDS011;36281;34.132;-118.018;2022-07-18T06:22:50;8.75;;;5.10;;
50367;SDS011;36281;34.132;-118.018;2022-07-18T06:25:21;8.27;;;5.18;;
50367;SDS011;36281;34.132;-118.018;2022-07-18T06:27:50;8.68;;;5.22;;
50367;SDS011;36281;34.132;-118.018;2022-07-18T06:30:19;9.60;;;5.35;;
50367;SDS011;36281;34.132;-118.018;2022-07-18T06:32:50;8.73;;;5.43;;
50367;SDS011;36281;34.132;-118.018;2022-07-18T06:35:19;8.13;;;5.38;;
50367;SDS011;36281;34.132;-118.018;2022-07-18T06:37:48;8.57;;;4.80;;
50367;SDS011;36281;34.132;-118.018;2022-07-18T06:40:19;10.75;;;5.30;;
50367;SDS011;36281;34.132;-118.018;2022-07-18T06:42:48;10.45;;;5.43;;
50367;SDS011;36281;34.132;-118.018;2022-07-18T06:45:17;8.13;;;4.85;;
50367;SDS011;36281;34.132;-118.018;2022-07-18T06:47:47;7.47;;;5.20;;
50367;SDS011;36281;34.132;-118.018;2022-07-18T06:50:16;8.95;;;5.40;;
50367;SDS011;36281;34.132;-118.018;2022-07-18T06:52:45;9.38;;;5.22;;
50367;SDS011;36281;34.132;-118.018;2022-07-18T06:55:14;8.05;;;5.30;;
50367;SDS011;36281;34.132;-118.018;2022-07-18T06:57:45;9.85;;;5.70;;
50367;SDS011;36281;34.132;-118.018;2022-07-18T07:00:14;8.73;;;5.65;;
50367;SDS011;36281;34.132;-118.018;2022-07-18T07:02:44;10.02;;;5.38;;
50367;SDS011;36281;34.132;-118.018;2022-07-18T07:05:14;8.02;;;5.15;;
50367;SDS011;36281;34.132;-118.018;2022-07-18T07:07:46;7.20;;;4.82;;
50367;SDS011;36281;34.132;-118.018;2022-07-18T07:10:15;7.45;;;4.70;;
50367;SDS011;36281;34.132;-118.018;2022-07-18T07:12:47;12.02;;;5.50;;
50367;SDS011;36281;34.132;-118.018;2022-07-18T07:15:18;10.23;;;5.70;;
50367;SDS011;36281;34.132;-118.018;2022-07-18T07:17:48;11.20;;;5.50;;
50367;SDS011;36281;34.132;-118.018;2022-07-18T07:20:18;10.73;;;5.55;;
50367;SDS011;36281;34.132;-118.018;2022-07-18T07:22:49;7.97;;;5.10;;
50367;SDS011;36281;34.132;-118.018;2022-07-18T07:25:19;9.20;;;5.75;;
50367;SDS011;36281;34.132;-118.018;2022-07-18T07:27:51;11.10;;;6.25;;
50367;SDS011;36281;34.132;-118.018;2022-07-18T07:30:20;8.73;;;5.97;;
50367;SDS011;36281;34.132;-118.018;2022-07-18T07:32:50;10.82;;;5.80;;
50367;SDS011;36281;34.132;-118.018;2022-07-18T07:35:22;9.10;;;5.15;;
50367;SDS011;36281;34.132;-118.018;2022-07-18T07:37:52;7.40;;;5.35;;
50367;SDS011;36281;34.132;-118.018;2022-07-18T07:40:22;9.98;;;5.40;;
50367;SDS011;36281;34.132;-118.018;2022-07-18T07:42:57;9.13;;;5.47;;
50367;SDS011;36281;34.132;-118.018;2022-07-18T07:45:33;7.35;;;5.25;;
50367;SDS011;36281;34.132;-118.018;2022-07-18T07:48:03;8.45;;;5.55;;
50367;SDS011;36281;34.132;-118.018;2022-07-18T07:50:33;9.98;;;5.05;;
50367;SDS011;36281;34.132;-118.018;2022-07-18T07:53:02;7.68;;;5.60;;
50367;SDS011;36281;34.132;-118.018;2022-07-18T07:55:31;10.25;;;5.60;;
50367;SDS011;36281;34.132;-118.018;2022-07-18T07:58:02;11.13;;;5.93;;
50367;SDS011;36281;34.132;-118.018;2022-07-18T08:00:32;10.55;;;5.78;;
50367;SDS011;36281;34.132;-118.018;2022-07-18T08:03:02;10.73;;;5.40;;
50367;SDS011;36281;34.132;-118.018;2022-07-18T08:05:33;9.70;;;5.72;;
50367;SDS011;36281;34.132;-118.018;2022-07-18T08:08:05;10.35;;;5.80;;
50367;SDS011;36281;34.132;-118.018;2022-07-18T08:10:34;11.27;;;5.68;;
50367;SDS011;36281;34.132;-118.018;2022-07-18T08:13:11;10.77;;;5.72;;
50367;SDS011;36281;34.132;-118.018;2022-07-18T08:15:41;9.63;;;5.50;;
50367;SDS011;36281;34.132;-118.018;2022-07-18T08:18:10;9.60;;;5.68;;
50367;SDS011;36281;34.132;-118.018;2022-07-18T08:20:39;8.43;;;5.60;;
50367;SDS011;36281;34.132;-118.018;2022-07-18T08:23:08;8.80;;;5.25;;
50367;SDS011;36281;34.132;-118.018;2022-07-18T08:25:39;8.73;;;5.85;;
50367;SDS011;36281;34.132;-118.018;2022-07-18T08:28:11;10.05;;;6.00;;
50367;SDS011;36281;34.132;-118.018;2022-07-18T08:30:41;8.40;;;5.22;;
50367;SDS011;36281;34.132;-118.018;2022-07-18T08:33:10;10.00;;;5.45;;
50367;SDS011;36281;34.132;-118.018;2022-07-18T08:35:39;8.52;;;5.55;;
50367;SDS011;36281;34.132;-118.018;2022-07-18T08:38:08;9.50;;;5.85;;
50367;SDS011;36281;34.132;-118.018;2022-07-18T08:40:37;9.52;;;5.40;;
50367;SDS011;36281;34.132;-118.018;2022-07-18T08:43:06;8.45;;;5.88;;
50367;SDS011;36281;34.132;-118.018;2022-07-18T08:45:54;10.80;;;5.90;;
50367;SDS011;36281;34.132;-118.018;2022-07-18T08:48:24;7.53;;;5.72;;
50367;SDS011;36281;34.132;-118.018;2022-07-18T08:50:53;8.73;;;5.63;;
50367;SDS011;36281;34.132;-118.018;2022-07-18T08:53:22;10.32;;;5.40;;
50367;SDS011;36281;34.132;-118.018;2022-07-18T08:55:52;8.52;;;5.30;;
50367;SDS011;36281;34.132;-118.018;2022-07-18T08:58:21;12.95;;;5.57;;
50367;SDS011;36281;34.132;-118.018;2022-07-18T09:01:12;6.72;;;5.35;;
50367;SDS011;36281;34.132;-118.018;2022-07-18T09:03:41;9.38;;;5.65;;
50367;SDS011;36281;34.132;-118.018;2022-07-18T09:06:11;12.10;;;5.43;;
50367;SDS011;36281;34.132;-118.018;2022-07-18T09:08:56;15.38;;;6.57;;
50367;SDS011;36281;34.132;-118.018;2022-07-18T09:11:27;8.50;;;5.38;;
50367;SDS011;36281;34.132;-118.018;2022-07-18T09:14:32;8.85;;;6.22;;
50367;SDS011;36281;34.132;-118.018;2022-07-18T09:17:05;11.52;;;6.18;;
50367;SDS011;36281;34.132;-118.018;2022-07-18T09:19:37;10.70;;;6.32;;
50367;SDS011;36281;34.132;-118.018;2022-07-18T09:22:15;9.23;;;5.72;;
50367;SDS011;36281;34.132;-118.018;2022-07-18T09:24:54;12.20;;;5.80;;
50367;SDS011;36281;34.132;-118.018;2022-07-18T09:27:29;7.95;;;5.65;;
50367;SDS011;36281;34.132;-118.018;2022-07-18T09:30:19;8.85;;;5.80;;
50367;SDS011;36281;34.132;-118.018;2022-07-18T09:32:52;11.88;;;6.05;;
50367;SDS011;36281;34.132;-118.018;2022-07-18T09:35:23;10.40;;;6.38;;
50367;SDS011;36281;34.132;-118.018;2022-07-18T09:37:55;9.95;;;5.65;;
50367;SDS011;36281;34.132;-118.018;2022-07-18T09:40:28;8.98;;;5.78;;
50367;SDS011;36281;34.132;-118.018;2022-07-18T09:42:59;10.27;;;5.82;;
50367;SDS011;36281;34.132;-118.018;2022-07-18T09:45:31;11.88;;;6.35;;
50367;SDS011;36281;34.132;-118.018;2022-07-18T09:48:03;10.65;;;6.05;;
50367;SDS011;36281;34.132;-118.018;2022-07-18T09:50:34;10.38;;;5.95;;
50367;SDS011;36281;34.132;-118.018;2022-07-18T09:53:14;12.20;;;6.35;;
50367;SDS011;36281;34.132;-118.018;2022-07-18T09:56:01;16.15;;;6.90;;
50367;SDS011;36281;34.132;-118.018;2022-07-18T09:58:34;11.80;;;6.13;;
50367;SDS011;36281;34.132;-118.018;2022-07-18T10:01:07;14.05;;;6.70;;
50367;SDS011;36281;34.132;-118.018;2022-07-18T10:03:39;9.40;;;5.47;;
50367;SDS011;36281;34.132;-118.018;2022-07-18T10:06:08;12.18;;;6.70;;
50367;SDS011;36281;34.132;-118.018;2022-07-18T10:08:38;12.88;;;6.47;;
50367;SDS011;36281;34.132;-118.018;2022-07-18T10:11:07;8.88;;;5.72;;
50367;SDS011;36281;34.132;-118.018;2022-07-18T10:13:37;11.50;;;6.68;;
50367;SDS011;36281;34.132;-118.018;2022-07-18T10:16:07;11.18;;;5.75;;
50367;SDS011;36281;34.132;-118.018;2022-07-18T10:18:36;8.95;;;5.90;;
50367;SDS011;36281;34.132;-118.018;2022-07-18T10:21:07;10.10;;;5.80;;
50367;SDS011;36281;34.132;-118.018;2022-07-18T10:23:39;11.57;;;6.13;;
50367;SDS011;36281;34.132;-118.018;2022-07-18T10:26:11;9.25;;;6.03;;
50367;SDS011;36281;34.132;-118.018;2022-07-18T10:31:59;10.35;;;5.53;;
50367;SDS011;36281;34.132;-118.018;2022-07-18T10:34:31;8.60;;;5.65;;
50367;SDS011;36281;34.132;-118.018;2022-07-18T10:37:11;10.63;;;6.03;;
50367;SDS011;36281;34.132;-118.018;2022-07-18T10:39:41;11.68;;;5.45;;
50367;SDS011;36281;34.132;-118.018;2022-07-18T10:42:16;10.18;;;5.57;;
50367;SDS011;36281;34.132;-118.018;2022-07-18T10:44:51;9.20;;;5.90;;
50367;SDS011;36281;34.132;-118.018;2022-07-18T10:47:21;10.65;;;5.78;;
50367;SDS011;36281;34.132;-118.018;2022-07-18T10:50:04;10.20;;;6.50;;
50367;SDS011;36281;34.132;-118.018;2022-07-18T10:55:28;9.75;;;5.50;;
50367;SDS011;36281;34.132;-118.018;2022-07-18T10:58:16;10.45;;;6.07;;
50367;SDS011;36281;34.132;-118.018;2022-07-18T11:00:49;11.23;;;6.07;;
50367;SDS011;36281;34.132;-118.018;2022-07-18T11:03:26;9.18;;;6.47;;
50367;SDS011;36281;34.132;-118.018;2022-07-18T11:05:56;9.55;;;5.70;;
50367;SDS011;36281;34.132;-118.018;2022-07-18T11:08:29;8.45;;;6.00;;
50367;SDS011;36281;34.132;-118.018;2022-07-18T11:11:06;8.95;;;5.85;;
50367;SDS011;36281;34.132;-118.018;2022-07-18T11:13:39;10.07;;;6.03;;
50367;SDS011;36281;34.132;-118.018;2022-07-18T11:16:11;10.13;;;6.05;;
50367;SDS011;36281;34.132;-118.018;2022-07-18T11:21:45;10.85;;;6.43;;
50367;SDS011;36281;34.132;-118.018;2022-07-18T11:24:25;12.25;;;6.35;;
50367;SDS011;36281;34.132;-118.018;2022-07-18T11:26:54;9.98;;;6.15;;
50367;SDS011;36281;34.132;-118.018;2022-07-18T11:29:23;8.95;;;5.72;;
50367;SDS011;36281;34.132;-118.018;2022-07-18T11:31:53;10.60;;;6.25;;
50367;SDS011;36281;34.132;-118.018;2022-07-18T11:34:23;8.20;;;5.72;;
50367;SDS011;36281;34.132;-118.018;2022-07-18T11:37:07;9.93;;;6.30;;
50367;SDS011;36281;34.132;-118.018;2022-07-18T11:39:42;10.27;;;5.85;;
50367;SDS011;36281;34.132;-118.018;2022-07-18T11:42:11;11.77;;;6.55;;
50367;SDS011;36281;34.132;-118.018;2022-07-18T11:44:40;11.00;;;6.22;;
50367;SDS011;36281;34.132;-118.018;2022-07-18T11:47:10;8.80;;;6.03;;
50367;SDS011;36281;34.132;-118.018;2022-07-18T11:49:41;7.93;;;5.63;;
50367;SDS011;36281;34.132;-118.018;2022-07-18T11:52:22;9.25;;;6.05;;
50367;SDS011;36281;34.132;-118.018;2022-07-18T11:54:59;10.55;;;6.45;;
50367;SDS011;36281;34.132;-118.018;2022-07-18T11:57:28;10.10;;;6.25;;
50367;SDS011;36281;34.132;-118.018;2022-07-18T11:59:59;10.10;;;6.90;;
50367;SDS011;36281;34.132;-118.018;2022-07-18T12:05:42;11.27;;;7.03;;
50367;SDS011;36281;34.132;-118.018;2022-07-18T12:11:09;12.07;;;6.47;;
50367;SDS011;36281;34.132;-118.018;2022-07-18T12:13:51;10.35;;;6.20;;
50367;SDS011;36281;34.132;-118.018;2022-07-18T12:16:36;11.38;;;6.85;;
50367;SDS011;36281;34.132;-118.018;2022-07-18T12:19:06;10.98;;;6.05;;
50367;SDS011;36281;34.132;-118.018;2022-07-18T12:21:47;12.55;;;6.75;;
50367;SDS011;36281;34.132;-118.018;2022-07-18T12:24:20;9.95;;;6.50;;
50367;SDS011;36281;34.132;-118.018;2022-07-18T12:27:16;15.27;;;7.00;;
50367;SDS011;36281;34.132;-118.018;2022-07-18T12:30:00;9.95;;;6.10;;
50367;SDS011;36281;34.132;-118.018;2022-07-18T12:32:41;13.00;;;6.30;;
50367;SDS011;36281;34.132;-118.018;2022-07-18T12:35:12;10.02;;;6.15;;
50367;SDS011;36281;34.132;-118.018;2022-07-18T12:37:50;12.50;;;6.35;;
50367;SDS011;36281;34.132;-118.018;2022-07-18T12:40:21;11.38;;;6.30;;
50367;SDS011;36281;34.132;-118.018;2022-07-18T12:43:03;11.75;;;6.30;;
50367;SDS011;36281;34.132;-118.018;2022-07-18T12:45:34;8.75;;;6.32;;
50367;SDS011;36281;34.132;-118.018;2022-07-18T12:48:03;12.40;;;6.38;;
50367;SDS011;36281;34.132;-118.018;2022-07-18T12:50:35;11.05;;;6.28;;
50367;SDS011;36281;34.132;-118.018;2022-07-18T12:53:05;9.68;;;6.13;;
50367;SDS011;36281;34.132;-118.018;2022-07-18T12:55:34;8.88;;;6.22;;
50367;SDS011;36281;34.132;-118.018;2022-07-18T12:58:05;11.02;;;6.18;;
50367;SDS011;36281;34.132;-118.018;2022-07-18T13:00:36;11.20;;;6.38;;
50367;SDS011;36281;34.132;-118.018;2022-07-18T13:03:05;10.95;;;6.60;;
50367;SDS011;36281;34.132;-118.018;2022-07-18T13:05:34;12.35;;;6.88;;
50367;SDS011;36281;34.132;-118.018;2022-07-18T13:08:03;12.30;;;6.75;;
50367;SDS011;36281;34.132;-118.018;2022-07-18T13:10:34;18.20;;;6.85;;
50367;SDS011;36281;34.132;-118.018;2022-07-18T13:13:05;22.65;;;7.50;;
50367;SDS011;36281;34.132;-118.018;2022-07-18T13:15:36;11.25;;;6.65;;
50367;SDS011;36281;34.132;-118.018;2022-07-18T13:18:05;9.30;;;6.35;;
50367;SDS011;36281;34.132;-118.018;2022-07-18T13:20:35;11.07;;;5.88;;
50367;SDS011;36281;34.132;-118.018;2022-07-18T13:23:05;10.23;;;6.15;;
50367;SDS011;36281;34.132;-118.018;2022-07-18T13:25:34;10.50;;;6.65;;
50367;SDS011;36281;34.132;-118.018;2022-07-18T13:28:05;11.13;;;6.43;;
50367;SDS011;36281;34.132;-118.018;2022-07-18T13:30:35;9.70;;;6.35;;
50367;SDS011;36281;34.132;-118.018;2022-07-18T13:33:05;12.38;;;6.32;;
50367;SDS011;36281;34.132;-118.018;2022-07-18T13:35:34;13.50;;;7.00;;
50367;SDS011;36281;34.132;-118.018;2022-07-18T13:38:03;10.80;;;6.40;;
50367;SDS011;36281;34.132;-118.018;2022-07-18T13:40:32;11.52;;;6.60;;
50367;SDS011;36281;34.132;-118.018;2022-07-18T13:43:01;13.23;;;6.88;;
50367;SDS011;36281;34.132;-118.018;2022-07-18T13:45:32;8.30;;;6.43;;
50367;SDS011;36281;34.132;-118.018;2022-07-18T13:48:01;11.23;;;6.85;;
50367;SDS011;36281;34.132;-118.018;2022-07-18T13:50:30;13.30;;;7.05;;
50367;SDS011;36281;34.132;-118.018;2022-07-18T13:53:00;10.48;;;6.97;;
50367;SDS011;36281;34.132;-118.018;2022-07-18T13:55:29;14.13;;;8.10;;
50367;SDS011;36281;34.132;-118.018;2022-07-18T13:57:58;15.52;;;8.13;;
50367;SDS011;36281;34.132;-118.018;2022-07-18T14:00:35;14.82;;;8.00;;
50367;SDS011;36281;34.132;-118.018;2022-07-18T14:03:04;16.70;;;7.80;;
50367;SDS011;36281;34.132;-118.018;2022-07-18T14:05:34;14.88;;;8.05;;
50367;SDS011;36281;34.132;-118.018;2022-07-18T14:08:03;15.48;;;8.20;;
50367;SDS011;36281;34.132;-118.018;2022-07-18T14:10:34;14.43;;;7.57;;
50367;SDS011;36281;34.132;-118.018;2022-07-18T14:13:04;10.70;;;6.85;;
50367;SDS011;36281;34.132;-118.018;2022-07-18T14:15:33;14.40;;;7.70;;
50367;SDS011;36281;34.132;-118.018;2022-07-18T14:18:03;9.43;;;6.68;;
50367;SDS011;36281;34.132;-118.018;2022-07-18T14:20:33;14.05;;;7.22;;
50367;SDS011;36281;34.132;-118.018;2022-07-18T14:23:02;9.35;;;6.57;;
50367;SDS011;36281;34.132;-118.018;2022-07-18T14:25:31;12.25;;;7.03;;
50367;SDS011;36281;34.132;-118.018;2022-07-18T14:28:00;14.02;;;7.25;;
50367;SDS011;36281;34.132;-118.018;2022-07-18T14:30:29;13.25;;;7.15;;
50367;SDS011;36281;34.132;-118.018;2022-07-18T14:33:00;14.57;;;7.00;;
50367;SDS011;36281;34.132;-118.018;2022-07-18T14:35:29;12.70;;;7.50;;
50367;SDS011;36281;34.132;-118.018;2022-07-18T14:37:58;10.77;;;7.50;;